Time;durP1;ratioP1;P1;durP2;ratioP2;P2;SDS_P1;SDS_P2;PMS_P1;PMS_P2;Temp;Humidity;BMP_temperature;BMP_pressure;BME280_temperature;BME280_humidity;BME280_pressure;Samples;Min_cycle;Max_cycle;Signal;HPM_P1;HPM_P2
2022/09/27 00:03:11;;;;;;;13.75;5.97;;;;;;;;;;10276484;28;20079;-66
2022/09/27 00:08:11;;;;;;;6.05;5.22;;;;;;;;;;10276316;28;20125;-67
2022/09/27 00:13:09;;;;;;;7.90;6.18;;;;;;;;;;10268965;28;20068;-67
2022/09/27 00:18:09;;;;;;;8.27;6.03;;;;;;;;;;10275451;28;20068;-66
2022/09/27 00:23:07;;;;;;;8.70;6.28;;;;;;;;;;10269776;28;20068;-66
2022/09/27 00:28:07;;;;;;;11.25;6.35;;;;;;;;;;10275526;28;20258;-66
2022/09/27 00:33:05;;;;;;;8.93;6.13;;;;;;;;;;10274861;28;20502;-66
2022/09/27 00:38:04;;;;;;;8.35;5.80;;;;;;;;;;10275669;28;20490;-66
2022/09/27 00:43:02;;;;;;;10.68;6.88;;;;;;;;;;10273278;28;20076;-66
2022/09/27 00:48:04;;;;;;;9.23;6.30;;;;;;;;;;10273322;28;20045;-66
2022/09/27 00:53:09;;;;;;;8.43;6.78;;;;;;;;;;10273918;28;20065;-66
2022/09/27 00:58:08;;;;;;;8.73;7.15;;;;;;;;;;10273907;28;20080;-66
2022/09/27 01:03:10;;;;;;;10.57;7.72;;;;;;;;;;10274147;28;20080;-66
2022/09/27 01:08:08;;;;;;;13.35;8.07;;;;;;;;;;10268490;28;20422;-67
2022/09/27 01:13:11;;;;;;;20.10;8.02;;;;;;;;;;10268953;28;20048;-66
2022/09/27 01:18:17;;;;;;;9.73;7.10;;;;;;;;;;10272727;28;20394;-66
2022/09/27 01:23:43;;;;;;;10.77;8.05;;;;;;;;;;10273945;28;20513;-66
2022/09/27 01:28:59;;;;;;;9.10;7.95;;;;;;;;;;10227206;28;20045;-66
2022/09/27 01:34:02;;;;;;;9.93;7.25;;;;;;;;;;10273946;28;20459;-67
2022/09/27 01:39:09;;;;;;;14.38;8.05;;;;;;;;;;10270970;28;20072;-65
2022/09/27 01:44:33;;;;;;;15.10;13.60;;;;;;;;;;10269561;28;20506;-67
2022/09/27 01:49:45;;;;;;;11.43;7.68;;;;;;;;;;10269526;28;20087;-67
2022/09/27 01:54:47;;;;;;;10.48;7.20;;;;;;;;;;10270312;28;20096;-67
2022/09/27 02:00:08;;;;;;;9.23;6.93;;;;;;;;;;10266484;28;20228;-67
2022/09/27 02:05:16;;;;;;;10.35;7.57;;;;;;;;;;10272486;28;20501;-68
2022/09/27 02:10:19;;;;;;;7.13;6.40;;;;;;;;;;10270437;28;20509;-67
2022/09/27 02:15:27;;;;;;;7.97;6.75;;;;;;;;;;10271239;28;20068;-67
2022/09/27 02:20:55;;;;;;;10.77;7.05;;;;;;;;;;10271704;28;20060;-67
2022/09/27 02:25:56;;;;;;;9.90;7.63;;;;;;;;;;10250414;28;20087;-68
2022/09/27 02:30:55;;;;;;;7.95;7.25;;;;;;;;;;10276291;28;20053;-67
2022/09/27 02:35:58;;;;;;;8.48;7.47;;;;;;;;;;10270660;28;20505;-68
2022/09/27 02:40:57;;;;;;;7.93;7.07;;;;;;;;;;10269325;28;20052;-67
2022/09/27 02:46:06;;;;;;;9.65;7.72;;;;;;;;;;10271355;28;20095;-66
2022/09/27 02:51:13;;;;;;;11.32;7.32;;;;;;;;;;10268350;28;20041;-67
2022/09/27 02:56:16;;;;;;;11.80;7.93;;;;;;;;;;10269263;28;20490;-67
2022/09/27 03:01:47;;;;;;;8.07;7.28;;;;;;;;;;10265854;28;20446;-68
2022/09/27 03:07:00;;;;;;;8.43;7.45;;;;;;;;;;10272616;28;20088;-68
2022/09/27 03:11:58;;;;;;;8.30;7.05;;;;;;;;;;10278108;28;20041;-68
2022/09/27 03:16:56;;;;;;;9.65;7.28;;;;;;;;;;10277909;28;20061;-68
2022/09/27 03:22:26;;;;;;;13.70;7.07;;;;;;;;;;10283605;28;20057;-67
2022/09/27 03:27:24;;;;;;;12.10;7.05;;;;;;;;;;10276941;28;20524;-66
2022/09/27 03:32:23;;;;;;;8.73;7.38;;;;;;;;;;10276550;28;20045;-67
2022/09/27 03:37:49;;;;;;;8.95;7.43;;;;;;;;;;10282811;28;20084;-67
2022/09/27 03:42:48;;;;;;;12.63;7.15;;;;;;;;;;10276183;28;20140;-67
2022/09/27 03:47:47;;;;;;;7.72;6.97;;;;;;;;;;10275839;28;20628;-67
2022/09/27 03:52:45;;;;;;;11.18;7.78;;;;;;;;;;10273864;28;20052;-67
2022/09/27 03:57:46;;;;;;;7.68;6.43;;;;;;;;;;10262112;28;20048;-67
2022/09/27 04:02:46;;;;;;;8.10;7.22;;;;;;;;;;10268729;28;20052;-66
2022/09/27 04:07:50;;;;;;;11.68;8.05;;;;;;;;;;10280133;28;20100;-66
2022/09/27 04:12:51;;;;;;;10.23;8.15;;;;;;;;;;10272235;28;20115;-67
2022/09/27 04:17:52;;;;;;;10.48;8.27;;;;;;;;;;10256901;28;20084;-67
2022/09/27 04:23:03;;;;;;;9.98;7.97;;;;;;;;;;10278414;28;20103;-66
2022/09/27 04:28:04;;;;;;;12.25;9.30;;;;;;;;;;10267347;28;20053;-67
2022/09/27 04:33:04;;;;;;;8.43;7.60;;;;;;;;;;10264353;28;20561;-66
2022/09/27 04:38:22;;;;;;;8.38;7.50;;;;;;;;;;10274641;28;20079;-66
2022/09/27 04:43:23;;;;;;;28.95;25.85;;;;;;;;;;10269774;28;20517;-65
2022/09/27 04:48:22;;;;;;;10.65;7.90;;;;;;;;;;10266632;28;20094;-66
2022/09/27 04:53:20;;;;;;;9.65;8.63;;;;;;;;;;10265119;28;20072;-67
2022/09/27 04:58:19;;;;;;;10.23;9.02;;;;;;;;;;10273341;28;20092;-65
2022/09/27 05:03:19;;;;;;;11.80;8.85;;;;;;;;;;10266520;28;20085;-67
2022/09/27 05:08:27;;;;;;;9.40;8.50;;;;;;;;;;10268051;28;20099;-67
2022/09/27 05:14:03;;;;;;;14.95;8.80;;;;;;;;;;10300376;28;20099;-66
2022/09/27 05:19:10;;;;;;;12.95;10.52;;;;;;;;;;10274002;28;20076;-67
2022/09/27 05:24:27;;;;;;;9.63;8.57;;;;;;;;;;10275706;28;20077;-67
2022/09/27 05:29:25;;;;;;;9.10;8.20;;;;;;;;;;10272368;28;20076;-66
2022/09/27 05:34:38;;;;;;;9.48;8.57;;;;;;;;;;10271721;28;20056;-68
2022/09/27 05:39:36;;;;;;;10.25;9.25;;;;;;;;;;10274128;28;20087;-67
2022/09/27 05:44:35;;;;;;;10.10;8.40;;;;;;;;;;10266530;28;20064;-66
2022/09/27 05:49:36;;;;;;;9.70;8.73;;;;;;;;;;10274503;28;20040;-67
2022/09/27 05:54:36;;;;;;;8.82;7.97;;;;;;;;;;10270168;28;20076;-66
2022/09/27 05:59:35;;;;;;;11.85;8.05;;;;;;;;;;10268702;28;20091;-66
2022/09/27 06:05:02;;;;;;;9.02;8.13;;;;;;;;;;10256568;28;20504;-66
2022/09/27 06:10:20;;;;;;;9.63;8.00;;;;;;;;;;10263493;28;20103;-66
2022/09/27 06:15:18;;;;;;;8.98;8.15;;;;;;;;;;10266316;28;20106;-67
2022/09/27 06:20:17;;;;;;;8.98;8.07;;;;;;;;;;10266345;28;20510;-67
2022/09/27 06:25:17;;;;;;;9.40;8.40;;;;;;;;;;10264222;28;20076;-66
2022/09/27 06:30:55;;;;;;;10.15;8.93;;;;;;;;;;10259124;28;20506;-67
2022/09/27 06:36:16;;;;;;;13.27;8.80;;;;;;;;;;10262896;28;20100;-67
2022/09/27 06:41:16;;;;;;;10.32;8.13;;;;;;;;;;10259773;28;20079;-68
2022/09/27 06:46:34;;;;;;;13.55;9.70;;;;;;;;;;10286503;28;20068;-66
2022/09/27 06:51:42;;;;;;;16.40;14.85;;;;;;;;;;10281477;28;20068;-66
2022/09/27 06:56:40;;;;;;;14.23;12.73;;;;;;;;;;10273960;28;20060;-67
2022/09/27 07:01:40;;;;;;;9.25;8.18;;;;;;;;;;10274368;28;20487;-66
2022/09/27 07:06:57;;;;;;;9.63;8.68;;;;;;;;;;10283143;28;20087;-67
2022/09/27 07:12:00;;;;;;;7.78;7.07;;;;;;;;;;10274818;28;20072;-66
2022/09/27 07:17:02;;;;;;;10.35;8.00;;;;;;;;;;10277347;28;20214;-67
2022/09/27 07:22:08;;;;;;;9.77;8.80;;;;;;;;;;10276620;28;20056;-67
2022/09/27 07:27:07;;;;;;;12.30;7.60;;;;;;;;;;10276957;28;20076;-67
2022/09/27 07:32:07;;;;;;;8.50;7.80;;;;;;;;;;10276525;28;20041;-66
2022/09/27 07:37:08;;;;;;;8.90;8.10;;;;;;;;;;10276512;28;20056;-67
2022/09/27 07:42:09;;;;;;;11.88;8.90;;;;;;;;;;10276487;28;20045;-67
2022/09/27 07:47:14;;;;;;;10.25;8.07;;;;;;;;;;10275470;28;20056;-67
2022/09/27 07:52:30;;;;;;;8.52;7.60;;;;;;;;;;10282188;28;20065;-67
2022/09/27 07:58:08;;;;;;;7.68;6.90;;;;;;;;;;10276571;28;20080;-67
2022/09/27 08:03:10;;;;;;;8.88;7.70;;;;;;;;;;10274679;28;20175;-67
2022/09/27 08:08:09;;;;;;;10.95;9.10;;;;;;;;;;10275507;28;20083;-66
2022/09/27 08:13:07;;;;;;;9.23;8.32;;;;;;;;;;10268449;28;20065;-67
2022/09/27 08:18:08;;;;;;;11.57;9.65;;;;;;;;;;10268417;28;20434;-67
2022/09/27 08:23:30;;;;;;;11.57;10.55;;;;;;;;;;10270814;28;20049;-66
2022/09/27 08:28:43;;;;;;;11.27;9.52;;;;;;;;;;10270670;28;20084;-68
2022/09/27 08:33:49;;;;;;;11.27;10.20;;;;;;;;;;10274286;28;20072;-66
2022/09/27 08:38:49;;;;;;;10.70;9.70;;;;;;;;;;10270049;28;20400;-67
2022/09/27 08:43:54;;;;;;;12.68;10.32;;;;;;;;;;10268743;28;20213;-67
2022/09/27 08:48:58;;;;;;;11.88;10.32;;;;;;;;;;10274025;28;20083;-67
2022/09/27 08:54:01;;;;;;;10.65;9.75;;;;;;;;;;10266005;28;20041;-67
2022/09/27 08:59:01;;;;;;;10.27;9.00;;;;;;;;;;10271197;28;20447;-67
2022/09/27 09:04:04;;;;;;;9.68;8.82;;;;;;;;;;10263227;28;20052;-66
2022/09/27 09:09:11;;;;;;;10.18;7.63;;;;;;;;;;10266996;28;20087;-67
2022/09/27 09:14:33;;;;;;;9.02;8.23;;;;;;;;;;10269846;28;20517;-65
2022/09/27 09:19:40;;;;;;;13.45;9.68;;;;;;;;;;10274270;28;20048;-66
2022/09/27 09:24:57;;;;;;;11.18;8.93;;;;;;;;;;10267763;28;20381;-67
2022/09/27 09:30:17;;;;;;;12.13;9.55;;;;;;;;;;10265261;28;20052;-67
2022/09/27 09:35:21;;;;;;;11.40;9.88;;;;;;;;;;10268939;28;20057;-67
2022/09/27 09:40:23;;;;;;;11.90;9.98;;;;;;;;;;10272428;28;20071;-66
2022/09/27 09:45:24;;;;;;;10.23;7.47;;;;;;;;;;10273085;28;20414;-67
2022/09/27 09:50:25;;;;;;;11.07;8.73;;;;;;;;;;10259212;28;20048;-67
2022/09/27 09:55:31;;;;;;;9.43;8.10;;;;;;;;;;10268899;28;20430;-67
2022/09/27 10:00:30;;;;;;;7.63;6.82;;;;;;;;;;10271941;28;20076;-66
2022/09/27 10:05:29;;;;;;;9.88;7.05;;;;;;;;;;10271220;28;20538;-66
2022/09/27 10:10:33;;;;;;;9.45;8.55;;;;;;;;;;10270641;28;20072;-68
2022/09/27 10:15:32;;;;;;;8.68;7.15;;;;;;;;;;10285127;28;20073;-67
2022/09/27 10:20:32;;;;;;;7.90;7.20;;;;;;;;;;10279795;28;20072;-67
2022/09/27 10:25:47;;;;;;;28.25;20.10;;;;;;;;;;10262584;28;20076;-66
2022/09/27 10:31:05;;;;;;;8.85;7.88;;;;;;;;;;10256995;28;20084;-66
2022/09/27 10:36:23;;;;;;;10.18;8.02;;;;;;;;;;10276482;28;20675;-67
2022/09/27 10:41:25;;;;;;;9.50;7.95;;;;;;;;;;10277861;28;20045;-67
2022/09/27 10:46:32;;;;;;;10.68;8.13;;;;;;;;;;10277816;28;20107;-67
2022/09/27 10:51:49;;;;;;;11.23;7.80;;;;;;;;;;10290261;28;20053;-66
2022/09/27 10:56:55;;;;;;;8.20;6.43;;;;;;;;;;10277607;28;20083;-66
2022/09/27 11:01:54;;;;;;;12.13;8.80;;;;;;;;;;10273415;28;20057;-67
2022/09/27 11:07:13;;;;;;;19.25;10.15;;;;;;;;;;10276662;28;20080;-66
2022/09/27 11:12:14;;;;;;;15.52;9.77;;;;;;;;;;10276278;28;20072;-67
2022/09/27 11:17:17;;;;;;;10.20;9.20;;;;;;;;;;10277636;28;20081;-67
2022/09/27 11:22:30;;;;;;;11.73;8.10;;;;;;;;;;10272905;28;20526;-67
2022/09/27 11:27:38;;;;;;;13.55;8.50;;;;;;;;;;10277156;28;20103;-67
2022/09/27 11:32:45;;;;;;;12.25;9.23;;;;;;;;;;10272762;28;20510;-66
2022/09/27 11:37:49;;;;;;;12.02;8.27;;;;;;;;;;10267838;28;20048;-67
2022/09/27 11:43:07;;;;;;;11.35;7.35;;;;;;;;;;10276404;28;20525;-66
2022/09/27 11:48:13;;;;;;;8.18;5.68;;;;;;;;;;10276510;28;20087;-67
2022/09/27 11:53:20;;;;;;;10.30;5.53;;;;;;;;;;10264624;28;20481;-67
2022/09/27 11:58:24;;;;;;;9.18;6.80;;;;;;;;;;10273162;28;20045;-67
2022/09/27 12:03:45;;;;;;;13.45;7.40;;;;;;;;;;10274834;28;20085;-66
2022/09/27 12:08:58;;;;;;;9.65;6.97;;;;;;;;;;10274943;28;20092;-67
2022/09/27 12:13:58;;;;;;;8.77;6.07;;;;;;;;;;10270621;28;20068;-67
2022/09/27 12:18:59;;;;;;;12.32;6.75;;;;;;;;;;10270302;28;20076;-67
2022/09/27 12:24:11;;;;;;;10.82;5.50;;;;;;;;;;10266079;28;20474;-66
2022/09/27 12:29:20;;;;;;;12.80;7.53;;;;;;;;;;10270758;28;20529;-67
2022/09/27 12:34:22;;;;;;;6.97;5.22;;;;;;;;;;10262584;28;20045;-66
2022/09/27 12:39:22;;;;;;;6.25;5.53;;;;;;;;;;10272061;28;20048;-66
2022/09/27 12:44:27;;;;;;;11.35;6.30;;;;;;;;;;10269676;28;20049;-65
2022/09/27 12:49:34;;;;;;;6.93;6.05;;;;;;;;;;10269184;28;20079;-65
2022/09/27 12:54:48;;;;;;;10.02;6.28;;;;;;;;;;10270233;28;20081;-66
2022/09/27 12:59:55;;;;;;;6.90;5.43;;;;;;;;;;10267615;28;20091;-66
2022/09/27 13:05:02;;;;;;;10.23;6.68;;;;;;;;;;10267487;28;20056;-67
2022/09/27 13:10:09;;;;;;;5.07;4.53;;;;;;;;;;10269903;28;20083;-67
2022/09/27 13:15:14;;;;;;;6.05;5.45;;;;;;;;;;10272050;28;20091;-67
2022/09/27 13:52:55;;;;;;;5.15;4.65;;;;;;;;;;10042581;28;20109;-66
2022/09/27 13:57:57;;;;;;;7.35;6.65;;;;;;;;;;10087571;28;20094;-66
2022/09/27 14:03:01;;;;;;;6.22;5.43;;;;;;;;;;10089494;28;20146;-67
2022/09/27 14:08:06;;;;;;;6.72;6.03;;;;;;;;;;10078349;28;20501;-66
2022/09/27 14:13:06;;;;;;;9.55;5.60;;;;;;;;;;10075568;28;20050;-67
2022/09/27 14:18:13;;;;;;;7.43;4.80;;;;;;;;;;10071697;28;20086;-67
2022/09/27 14:23:17;;;;;;;5.10;4.60;;;;;;;;;;10067000;28;20509;-67
2022/09/27 14:28:19;;;;;;;5.40;4.90;;;;;;;;;;10078421;28;20421;-67
2022/09/27 14:33:40;;;;;;;9.30;5.63;;;;;;;;;;10077095;28;20105;-68
2022/09/27 14:38:44;;;;;;;5.65;5.15;;;;;;;;;;10073441;28;20067;-68
2022/09/27 14:43:57;;;;;;;8.52;6.13;;;;;;;;;;10077898;28;20426;-68
2022/09/27 14:48:56;;;;;;;6.05;5.55;;;;;;;;;;10079007;28;20495;-67
2022/09/27 14:53:57;;;;;;;10.52;6.82;;;;;;;;;;10076206;28;20086;-68
2022/09/27 14:59:01;;;;;;;11.25;7.00;;;;;;;;;;10077916;28;20090;-66
2022/09/27 15:04:04;;;;;;;12.10;8.73;;;;;;;;;;10078022;28;20082;-66
2022/09/27 15:09:05;;;;;;;32.13;18.30;;;;;;;;;;10078744;28;20489;-67
2022/09/27 15:14:04;;;;;;;20.80;11.27;;;;;;;;;;10078905;28;20090;-67
2022/09/27 15:19:06;;;;;;;20.42;16.30;;;;;;;;;;10082679;28;20081;-65
2022/09/27 15:24:06;;;;;;;16.42;12.25;;;;;;;;;;10083285;28;20090;-67
2022/09/27 15:29:04;;;;;;;19.48;11.75;;;;;;;;;;10077085;28;20079;-66
2022/09/27 15:34:04;;;;;;;25.25;12.02;;;;;;;;;;10085176;28;20094;-66
2022/09/27 15:39:09;;;;;;;37.67;28.27;;;;;;;;;;10087499;28;20079;-66
2022/09/27 15:44:19;;;;;;;68.00;50.80;;;;;;;;;;10085015;28;20083;-66
2022/09/27 15:49:22;;;;;;;32.72;15.55;;;;;;;;;;10085853;28;20485;-66
2022/09/27 15:54:22;;;;;;;17.92;9.82;;;;;;;;;;10085625;28;20075;-68
2022/09/27 15:59:22;;;;;;;18.63;10.65;;;;;;;;;;10084407;28;20079;-67
2022/09/27 16:04:20;;;;;;;25.75;13.25;;;;;;;;;;10081600;28;20079;-66
2022/09/27 16:09:19;;;;;;;23.75;18.75;;;;;;;;;;10079205;28;20083;-67
2022/09/27 16:14:18;;;;;;;20.63;10.90;;;;;;;;;;10077672;28;20086;-67
2022/09/27 16:19:17;;;;;;;12.60;9.82;;;;;;;;;;10081823;28;20083;-67
2022/09/27 16:24:16;;;;;;;20.85;9.18;;;;;;;;;;10085570;28;20082;-67
2022/09/27 16:29:15;;;;;;;17.48;10.45;;;;;;;;;;10084977;28;20083;-67
2022/09/27 16:34:15;;;;;;;16.02;9.23;;;;;;;;;;10084634;28;20087;-66
2022/09/27 16:39:13;;;;;;;17.20;10.32;;;;;;;;;;10084180;28;20075;-67
2022/09/27 16:44:16;;;;;;;11.38;9.30;;;;;;;;;;10083227;28;20059;-68
2022/09/27 16:54:42;;;;;;;12.10;9.93;;;;;;;;;;10079488;28;20055;-67
2022/09/27 16:59:40;;;;;;;21.38;10.55;;;;;;;;;;10073376;28;20212;-69
2022/09/27 17:04:40;;;;;;;19.77;9.82;;;;;;;;;;10082137;28;20563;-68
2022/09/27 17:09:38;;;;;;;20.67;12.07;;;;;;;;;;10081949;28;20593;-68
2022/09/27 17:14:37;;;;;;;14.02;10.18;;;;;;;;;;10085515;28;20074;-68
2022/09/27 17:19:37;;;;;;;13.23;10.25;;;;;;;;;;10082334;28;20502;-68
2022/09/27 17:24:37;;;;;;;13.57;10.00;;;;;;;;;;10077474;28;20071;-68
2022/09/27 17:29:36;;;;;;;16.42;11.85;;;;;;;;;;10075315;28;20075;-68
2022/09/27 17:34:34;;;;;;;18.00;11.93;;;;;;;;;;10073042;28;20608;-68
2022/09/27 17:39:33;;;;;;;14.98;10.25;;;;;;;;;;10098724;28;20085;-68
2022/09/27 17:44:32;;;;;;;10.38;9.18;;;;;;;;;;10083564;28;20066;-68
2022/09/27 17:54:46;;;;;;;12.65;9.88;;;;;;;;;;10090004;28;20078;-69
2022/09/27 17:59:46;;;;;;;10.05;8.95;;;;;;;;;;10091404;28;20085;-68
2022/09/27 18:04:44;;;;;;;11.75;9.95;;;;;;;;;;10094323;28;20078;-69
2022/09/27 18:09:42;;;;;;;11.00;9.75;;;;;;;;;;10084037;28;20086;-68
2022/09/27 18:14:40;;;;;;;17.08;9.50;;;;;;;;;;10092912;28;20082;-68
2022/09/27 18:19:40;;;;;;;9.77;8.77;;;;;;;;;;10087858;28;20078;-69
2022/09/27 18:24:38;;;;;;;10.25;7.60;;;;;;;;;;10097138;28;20592;-68
2022/09/27 18:29:37;;;;;;;11.80;7.28;;;;;;;;;;10087664;28;20082;-69
2022/09/27 18:34:35;;;;;;;6.70;6.03;;;;;;;;;;10089112;28;20521;-69
2022/09/27 18:39:35;;;;;;;8.13;7.32;;;;;;;;;;10108792;28;20091;-69
2022/09/27 18:44:33;;;;;;;12.07;10.20;;;;;;;;;;10093153;28;20087;-68
2022/09/27 18:49:31;;;;;;;14.55;12.30;;;;;;;;;;10100479;28;20082;-68
2022/09/27 18:54:31;;;;;;;13.55;12.25;;;;;;;;;;10095352;28;20087;-68
2022/09/27 18:59:30;;;;;;;14.27;12.77;;;;;;;;;;10089676;28;20477;-68
2022/09/27 19:04:29;;;;;;;15.90;13.35;;;;;;;;;;10075747;28;20457;-69
2022/09/27 19:09:27;;;;;;;15.55;13.13;;;;;;;;;;10097978;28;20090;-68
2022/09/27 19:14:26;;;;;;;18.48;11.70;;;;;;;;;;10090407;28;21484;-69
2022/09/27 19:19:26;;;;;;;13.52;10.20;;;;;;;;;;10083881;28;20089;-69
2022/09/27 19:24:24;;;;;;;12.80;10.52;;;;;;;;;;10080688;28;20082;-69
2022/09/27 19:29:22;;;;;;;12.20;11.05;;;;;;;;;;10072990;28;20097;-68
2022/09/27 19:34:20;;;;;;;15.88;12.05;;;;;;;;;;10079694;28;20074;-69
2022/09/27 19:39:20;;;;;;;15.23;13.73;;;;;;;;;;10082143;28;20073;-68
2022/09/27 19:44:18;;;;;;;15.35;13.70;;;;;;;;;;10084223;28;20086;-67
2022/09/27 19:49:17;;;;;;;16.00;14.48;;;;;;;;;;10080503;28;20098;-67
2022/09/27 19:54:16;;;;;;;16.38;14.55;;;;;;;;;;10080886;28;20085;-68
2022/09/27 19:59:15;;;;;;;10.30;7.05;;;;;;;;;;10087671;28;20074;-67
2022/09/27 20:04:14;;;;;;;9.35;3.38;;;;;;;;;;10087627;28;20090;-67
2022/09/27 20:09:12;;;;;;;3.15;2.17;;;;;;;;;;10090191;28;20071;-68
2022/09/27 20:14:10;;;;;;;7.78;2.38;;;;;;;;;;10099233;28;20470;-68
2022/09/27 20:19:10;;;;;;;4.57;2.40;;;;;;;;;;10098837;28;20110;-68
2022/09/27 20:24:09;;;;;;;4.18;2.42;;;;;;;;;;10104630;28;20082;-68
2022/09/27 20:29:07;;;;;;;3.80;2.28;;;;;;;;;;10097310;28;20078;-67
2022/09/27 20:34:06;;;;;;;3.53;2.58;;;;;;;;;;10102694;28;20578;-67
2022/09/27 20:39:07;;;;;;;2.58;1.63;;;;;;;;;;10092112;28;20078;-67
2022/09/27 20:44:06;;;;;;;1.75;1.58;;;;;;;;;;10072323;28;20068;-67
2022/09/27 20:49:05;;;;;;;1.67;1.55;;;;;;;;;;10080768;28;20499;-67
2022/09/27 20:54:04;;;;;;;4.00;1.63;;;;;;;;;;10101354;28;20558;-68
2022/09/27 20:59:05;;;;;;;1.92;1.65;;;;;;;;;;10088086;28;20087;-67
2022/09/27 21:04:05;;;;;;;1.77;1.33;;;;;;;;;;10097630;28;20074;-67
2022/09/27 21:09:04;;;;;;;3.42;1.98;;;;;;;;;;10101845;28;20074;-69
2022/09/27 21:14:04;;;;;;;2.78;1.65;;;;;;;;;;10092079;28;20079;-68
2022/09/27 21:19:02;;;;;;;2.90;1.90;;;;;;;;;;10085668;28;20505;-68
2022/09/27 21:24:01;;;;;;;2.85;2.60;;;;;;;;;;10090067;28;20079;-68
2022/09/27 21:29:00;;;;;;;6.03;2.63;;;;;;;;;;10088517;28;20093;-68
2022/09/27 21:34:00;;;;;;;7.05;3.03;;;;;;;;;;10079397;28;20082;-68
2022/09/27 21:38:59;;;;;;;3.00;2.60;;;;;;;;;;10069000;28;20083;-69
2022/09/27 21:43:57;;;;;;;5.32;3.15;;;;;;;;;;10080034;28;20308;-67
2022/09/27 21:48:56;;;;;;;3.83;3.22;;;;;;;;;;10077501;28;20082;-68
2022/09/27 21:53:57;;;;;;;5.35;4.78;;;;;;;;;;10072797;28;20082;-67
2022/09/27 21:58:55;;;;;;;9.25;5.80;;;;;;;;;;10075883;28;20125;-67
2022/09/27 22:03:54;;;;;;;7.22;6.25;;;;;;;;;;10077094;28;20079;-68
2022/09/27 22:08:53;;;;;;;6.45;5.85;;;;;;;;;;10078276;28;20063;-67
2022/09/27 22:13:52;;;;;;;7.63;5.97;;;;;;;;;;10075619;28;20090;-67
2022/09/27 22:18:52;;;;;;;7.20;6.50;;;;;;;;;;10078025;28;20083;-67
2022/09/27 22:23:53;;;;;;;7.22;6.55;;;;;;;;;;10081912;28;20306;-66
2022/09/27 22:28:51;;;;;;;9.15;6.40;;;;;;;;;;10081045;28;20091;-66
2022/09/27 22:33:52;;;;;;;7.30;6.70;;;;;;;;;;10080309;28;20082;-67
2022/09/27 22:38:54;;;;;;;6.25;5.65;;;;;;;;;;10079686;28;20082;-70
2022/09/27 22:43:52;;;;;;;9.38;6.32;;;;;;;;;;10081669;28;20090;-67
2022/09/27 22:48:52;;;;;;;7.07;5.38;;;;;;;;;;10080533;28;20067;-67
2022/09/27 22:53:51;;;;;;;5.68;5.18;;;;;;;;;;10080147;28;20082;-68
2022/09/27 22:58:49;;;;;;;5.82;5.22;;;;;;;;;;10080604;28;20075;-68
2022/09/27 23:03:48;;;;;;;6.18;4.85;;;;;;;;;;10078938;28;20082;-68
2022/09/27 23:08:48;;;;;;;4.40;4.00;;;;;;;;;;10078113;28;20536;-68
2022/09/27 23:13:54;;;;;;;4.72;4.05;;;;;;;;;;10073819;28;20082;-67
2022/09/27 23:18:53;;;;;;;7.80;4.00;;;;;;;;;;10074311;28;20051;-67
2022/09/27 23:24:00;;;;;;;4.00;3.60;;;;;;;;;;10082390;28;20079;-69
2022/09/27 23:29:01;;;;;;;4.45;3.92;;;;;;;;;;10087326;28;20080;-68
2022/09/27 23:34:01;;;;;;;10.75;3.92;;;;;;;;;;10080855;28;20098;-66
2022/09/27 23:39:01;;;;;;;5.18;3.10;;;;;;;;;;10083274;28;20078;-68
2022/09/27 23:43:59;;;;;;;5.18;3.25;;;;;;;;;;10083680;28;20493;-67
2022/09/27 23:48:57;;;;;;;4.85;2.90;;;;;;;;;;10078290;28;20090;-68
2022/09/27 23:53:56;;;;;;;3.13;2.83;;;;;;;;;;10084815;28;20513;-68
2022/09/27 23:58:57;;;;;;;4.93;3.10;;;;;;;;;;10085919;28;20086;-67
